sensor_id;sensor_type;location;lat;lon;timestamp;pressure;altitude;pressure_sealevel;temperature;humidity
64354;BME280;50681;53.334;-6.536;2023-04-09T00:01:20;101276.44;;;11.93;100.00
64354;BME280;50681;53.334;-6.536;2023-04-09T00:03:47;101313.97;;;12.15;100.00
64354;BME280;50681;53.334;-6.536;2023-04-09T00:06:16;101273.50;;;11.89;100.00
64354;BME280;50681;53.334;-6.536;2023-04-09T00:08:49;101281.81;;;11.98;100.00
64354;BME280;50681;53.334;-6.536;2023-04-09T00:11:18;101274.31;;;11.84;100.00
64354;BME280;50681;53.334;-6.536;2023-04-09T00:13:45;101297.19;;;12.13;100.00
64354;BME280;50681;53.334;-6.536;2023-04-09T00:16:20;101284.78;;;12.07;100.00
64354;BME280;50681;53.334;-6.536;2023-04-09T00:18:46;101303.66;;;12.17;100.00
64354;BME280;50681;53.334;-6.536;2023-04-09T00:21:12;101295.28;;;12.13;100.00
64354;BME280;50681;53.334;-6.536;2023-04-09T00:23:40;101278.81;;;12.10;100.00
64354;BME280;50681;53.334;-6.536;2023-04-09T00:26:06;101300.66;;;12.18;100.00
64354;BME280;50681;53.334;-6.536;2023-04-09T00:28:34;101286.63;;;12.11;100.00
64354;BME280;50681;53.334;-6.536;2023-04-09T00:31:12;101288.75;;;12.19;100.00
64354;BME280;50681;53.334;-6.536;2023-04-09T00:33:37;101324.50;;;12.56;100.00
64354;BME280;50681;53.334;-6.536;2023-04-09T00:36:03;101274.72;;;12.12;100.00
64354;BME280;50681;53.334;-6.536;2023-04-09T00:38:28;101275.78;;;12.16;100.00
64354;BME280;50681;53.334;-6.536;2023-04-09T00:40:54;101280.06;;;12.23;100.00
64354;BME280;50681;53.334;-6.536;2023-04-09T00:43:20;101319.69;;;12.48;100.00
64354;BME280;50681;53.334;-6.536;2023-04-09T00:45:49;101276.97;;;12.40;100.00
64354;BME280;50681;53.334;-6.536;2023-04-09T00:48:17;101284.28;;;12.39;100.00
64354;BME280;50681;53.334;-6.536;2023-04-09T00:50:43;101281.53;;;12.44;100.00
64354;BME280;50681;53.334;-6.536;2023-04-09T00:53:11;101297.94;;;12.58;100.00
64354;BME280;50681;53.334;-6.536;2023-04-09T00:55:38;101259.38;;;12.37;100.00
64354;BME280;50681;53.334;-6.536;2023-04-09T00:58:04;101286.41;;;12.42;100.00
64354;BME280;50681;53.334;-6.536;2023-04-09T01:00:30;101283.44;;;12.44;100.00
64354;BME280;50681;53.334;-6.536;2023-04-09T01:02:56;101277.16;;;12.48;100.00
64354;BME280;50681;53.334;-6.536;2023-04-09T01:05:36;101252.38;;;12.31;100.00
64354;BME280;50681;53.334;-6.536;2023-04-09T01:08:21;101248.88;;;12.30;100.00
64354;BME280;50681;53.334;-6.536;2023-04-09T01:11:01;101244.69;;;12.14;100.00
64354;BME280;50681;53.334;-6.536;2023-04-09T01:13:33;101275.44;;;12.28;100.00
64354;BME280;50681;53.334;-6.536;2023-04-09T01:16:02;101257.09;;;12.20;100.00
64354;BME280;50681;53.334;-6.536;2023-04-09T01:21:22;101227.03;;;12.16;100.00
64354;BME280;50681;53.334;-6.536;2023-04-09T01:24:15;101248.53;;;12.37;100.00
64354;BME280;50681;53.334;-6.536;2023-04-09T01:26:57;101214.50;;;12.26;100.00
64354;BME280;50681;53.334;-6.536;2023-04-09T01:29:29;101233.91;;;12.38;100.00
64354;BME280;50681;53.334;-6.536;2023-04-09T01:31:56;101222.59;;;12.31;100.00
64354;BME280;50681;53.334;-6.536;2023-04-09T01:34:23;101224.78;;;12.29;100.00
64354;BME280;50681;53.334;-6.536;2023-04-09T01:36:53;101225.03;;;12.32;100.00
64354;BME280;50681;53.334;-6.536;2023-04-09T01:39:19;101217.59;;;12.14;100.00
64354;BME280;50681;53.334;-6.536;2023-04-09T01:41:46;101175.25;;;11.88;100.00
64354;BME280;50681;53.334;-6.536;2023-04-09T01:44:14;101189.28;;;12.01;100.00
64354;BME280;50681;53.334;-6.536;2023-04-09T01:46:41;101191.09;;;12.11;100.00
64354;BME280;50681;53.334;-6.536;2023-04-09T01:49:08;101201.84;;;12.21;100.00
64354;BME280;50681;53.334;-6.536;2023-04-09T01:51:35;101169.75;;;12.04;100.00
64354;BME280;50681;53.334;-6.536;2023-04-09T01:54:02;101152.38;;;12.10;100.00
64354;BME280;50681;53.334;-6.536;2023-04-09T01:56:40;101159.13;;;12.13;100.00
64354;BME280;50681;53.334;-6.536;2023-04-09T01:59:06;101165.97;;;12.05;100.00
64354;BME280;50681;53.334;-6.536;2023-04-09T02:01:36;101164.69;;;12.27;100.00
64354;BME280;50681;53.334;-6.536;2023-04-09T02:04:09;101139.94;;;12.09;100.00
64354;BME280;50681;53.334;-6.536;2023-04-09T02:09:28;101152.72;;;12.03;100.00
64354;BME280;50681;53.334;-6.536;2023-04-09T02:11:57;101135.16;;;11.96;100.00
64354;BME280;50681;53.334;-6.536;2023-04-09T02:14:24;101148.69;;;11.96;100.00
64354;BME280;50681;53.334;-6.536;2023-04-09T02:16:51;101167.56;;;12.06;100.00
64354;BME280;50681;53.334;-6.536;2023-04-09T02:19:17;101151.63;;;12.04;100.00
64354;BME280;50681;53.334;-6.536;2023-04-09T02:21:42;101143.28;;;11.96;100.00
64354;BME280;50681;53.334;-6.536;2023-04-09T02:24:08;101174.56;;;12.12;100.00
64354;BME280;50681;53.334;-6.536;2023-04-09T02:26:34;101139.72;;;12.05;100.00
64354;BME280;50681;53.334;-6.536;2023-04-09T02:29:00;101153.72;;;12.13;100.00
64354;BME280;50681;53.334;-6.536;2023-04-09T02:31:25;101163.22;;;12.10;100.00
64354;BME280;50681;53.334;-6.536;2023-04-09T02:33:51;101132.19;;;11.97;100.00
64354;BME280;50681;53.334;-6.536;2023-04-09T02:36:18;101140.00;;;11.99;100.00
64354;BME280;50681;53.334;-6.536;2023-04-09T02:38:43;101134.09;;;11.91;100.00
64354;BME280;50681;53.334;-6.536;2023-04-09T02:41:09;101147.22;;;12.14;100.00
64354;BME280;50681;53.334;-6.536;2023-04-09T02:43:35;101154.81;;;12.12;100.00
64354;BME280;50681;53.334;-6.536;2023-04-09T02:46:00;101144.50;;;12.14;100.00
64354;BME280;50681;53.334;-6.536;2023-04-09T02:48:26;101150.69;;;12.19;100.00
64354;BME280;50681;53.334;-6.536;2023-04-09T02:50:51;101122.97;;;12.03;100.00
64354;BME280;50681;53.334;-6.536;2023-04-09T02:53:17;101113.22;;;11.97;100.00
64354;BME280;50681;53.334;-6.536;2023-04-09T02:55:45;101125.00;;;12.17;100.00
64354;BME280;50681;53.334;-6.536;2023-04-09T02:58:11;101107.03;;;11.91;100.00
64354;BME280;50681;53.334;-6.536;2023-04-09T03:00:36;101136.72;;;12.07;100.00
64354;BME280;50681;53.334;-6.536;2023-04-09T03:03:02;101108.03;;;12.06;100.00
64354;BME280;50681;53.334;-6.536;2023-04-09T03:05:27;101100.22;;;11.99;100.00
64354;BME280;50681;53.334;-6.536;2023-04-09T03:07:53;101104.28;;;12.02;100.00
64354;BME280;50681;53.334;-6.536;2023-04-09T03:10:19;101102.63;;;12.06;100.00
64354;BME280;50681;53.334;-6.536;2023-04-09T03:12:44;101114.91;;;12.23;100.00
64354;BME280;50681;53.334;-6.536;2023-04-09T03:15:12;101092.78;;;12.15;100.00
64354;BME280;50681;53.334;-6.536;2023-04-09T03:17:38;101088.41;;;12.19;100.00
64354;BME280;50681;53.334;-6.536;2023-04-09T03:20:04;101059.88;;;12.03;100.00
64354;BME280;50681;53.334;-6.536;2023-04-09T03:22:35;101053.38;;;12.04;100.00
64354;BME280;50681;53.334;-6.536;2023-04-09T03:25:00;101065.81;;;12.05;100.00
64354;BME280;50681;53.334;-6.536;2023-04-09T03:27:25;101049.38;;;11.96;100.00
64354;BME280;50681;53.334;-6.536;2023-04-09T03:29:54;101056.78;;;12.15;100.00
64354;BME280;50681;53.334;-6.536;2023-04-09T03:32:20;101068.38;;;12.20;100.00
64354;BME280;50681;53.334;-6.536;2023-04-09T03:34:45;101065.72;;;12.15;100.00
64354;BME280;50681;53.334;-6.536;2023-04-09T03:37:11;101069.72;;;12.23;100.00
64354;BME280;50681;53.334;-6.536;2023-04-09T03:39:36;101069.97;;;12.22;100.00
64354;BME280;50681;53.334;-6.536;2023-04-09T03:42:02;101043.06;;;12.06;100.00
64354;BME280;50681;53.334;-6.536;2023-04-09T03:44:27;101026.34;;;11.99;100.00
64354;BME280;50681;53.334;-6.536;2023-04-09T03:46:53;101030.09;;;12.03;100.00
64354;BME280;50681;53.334;-6.536;2023-04-09T03:49:18;101052.63;;;12.23;100.00
64354;BME280;50681;53.334;-6.536;2023-04-09T03:51:43;101023.16;;;11.91;100.00
64354;BME280;50681;53.334;-6.536;2023-04-09T03:54:09;101050.28;;;12.16;100.00
64354;BME280;50681;53.334;-6.536;2023-04-09T03:56:34;101042.56;;;11.99;100.00
64354;BME280;50681;53.334;-6.536;2023-04-09T03:59:00;101023.91;;;12.02;100.00
64354;BME280;50681;53.334;-6.536;2023-04-09T04:01:25;101048.53;;;12.01;100.00
64354;BME280;50681;53.334;-6.536;2023-04-09T04:03:51;101043.25;;;12.15;100.00
64354;BME280;50681;53.334;-6.536;2023-04-09T04:06:16;101032.75;;;12.08;100.00
64354;BME280;50681;53.334;-6.536;2023-04-09T04:08:41;101035.78;;;12.07;100.00
64354;BME280;50681;53.334;-6.536;2023-04-09T04:11:08;101029.09;;;11.94;100.00
64354;BME280;50681;53.334;-6.536;2023-04-09T04:13:34;101018.38;;;11.83;100.00
64354;BME280;50681;53.334;-6.536;2023-04-09T04:15:59;101017.81;;;11.86;100.00
64354;BME280;50681;53.334;-6.536;2023-04-09T04:18:25;100991.88;;;11.80;100.00
64354;BME280;50681;53.334;-6.536;2023-04-09T04:20:50;100989.59;;;11.68;100.00
64354;BME280;50681;53.334;-6.536;2023-04-09T04:23:16;100970.28;;;11.51;100.00
64354;BME280;50681;53.334;-6.536;2023-04-09T04:25:41;100983.59;;;11.71;100.00
64354;BME280;50681;53.334;-6.536;2023-04-09T04:28:07;101001.66;;;11.76;100.00
64354;BME280;50681;53.334;-6.536;2023-04-09T04:30:33;100964.53;;;11.57;100.00
64354;BME280;50681;53.334;-6.536;2023-04-09T04:32:58;100989.25;;;11.75;100.00
64354;BME280;50681;53.334;-6.536;2023-04-09T04:35:24;100956.72;;;11.56;100.00
64354;BME280;50681;53.334;-6.536;2023-04-09T04:37:49;100972.06;;;11.60;100.00
64354;BME280;50681;53.334;-6.536;2023-04-09T04:40:17;100964.47;;;11.62;100.00
64354;BME280;50681;53.334;-6.536;2023-04-09T04:42:43;100965.41;;;11.77;100.00
64354;BME280;50681;53.334;-6.536;2023-04-09T04:45:08;100975.53;;;11.90;100.00
64354;BME280;50681;53.334;-6.536;2023-04-09T04:47:34;100965.72;;;11.75;100.00
64354;BME280;50681;53.334;-6.536;2023-04-09T04:50:00;100970.72;;;11.87;100.00
64354;BME280;50681;53.334;-6.536;2023-04-09T04:52:25;100970.66;;;11.93;100.00
64354;BME280;50681;53.334;-6.536;2023-04-09T04:54:51;100965.88;;;11.84;100.00
64354;BME280;50681;53.334;-6.536;2023-04-09T04:57:16;100970.66;;;11.93;100.00
64354;BME280;50681;53.334;-6.536;2023-04-09T04:59:42;100958.72;;;11.94;100.00
64354;BME280;50681;53.334;-6.536;2023-04-09T05:02:07;100961.75;;;11.92;100.00
64354;BME280;50681;53.334;-6.536;2023-04-09T05:04:33;100949.41;;;11.81;100.00
64354;BME280;50681;53.334;-6.536;2023-04-09T05:06:58;100942.41;;;11.80;100.00
64354;BME280;50681;53.334;-6.536;2023-04-09T05:09:24;100934.63;;;11.73;100.00
64354;BME280;50681;53.334;-6.536;2023-04-09T05:11:50;100950.22;;;11.81;100.00
64354;BME280;50681;53.334;-6.536;2023-04-09T05:14:15;100943.75;;;11.77;100.00
64354;BME280;50681;53.334;-6.536;2023-04-09T05:16:41;100949.59;;;11.89;100.00
64354;BME280;50681;53.334;-6.536;2023-04-09T05:19:06;100947.25;;;11.83;100.00
64354;BME280;50681;53.334;-6.536;2023-04-09T05:21:32;100922.81;;;11.64;100.00
64354;BME280;50681;53.334;-6.536;2023-04-09T05:23:57;100942.78;;;11.68;100.00
64354;BME280;50681;53.334;-6.536;2023-04-09T05:26:23;100941.63;;;11.74;100.00
64354;BME280;50681;53.334;-6.536;2023-04-09T05:28:49;100945.94;;;11.75;100.00
64354;BME280;50681;53.334;-6.536;2023-04-09T05:31:14;100938.94;;;11.74;100.00
64354;BME280;50681;53.334;-6.536;2023-04-09T05:33:41;100922.97;;;11.48;100.00
64354;BME280;50681;53.334;-6.536;2023-04-09T05:36:06;100931.56;;;11.55;100.00
64354;BME280;50681;53.334;-6.536;2023-04-09T05:38:32;100920.69;;;11.60;100.00
64354;BME280;50681;53.334;-6.536;2023-04-09T05:40:57;100926.09;;;11.60;100.00
64354;BME280;50681;53.334;-6.536;2023-04-09T05:43:23;100923.06;;;11.67;100.00
64354;BME280;50681;53.334;-6.536;2023-04-09T05:45:48;100908.19;;;11.65;100.00
64354;BME280;50681;53.334;-6.536;2023-04-09T05:48:13;100929.50;;;11.71;100.00
64354;BME280;50681;53.334;-6.536;2023-04-09T05:50:39;100911.53;;;11.56;100.00
64354;BME280;50681;53.334;-6.536;2023-04-09T05:53:04;100930.97;;;11.58;100.00
64354;BME280;50681;53.334;-6.536;2023-04-09T05:55:31;100909.06;;;11.60;100.00
64354;BME280;50681;53.334;-6.536;2023-04-09T05:57:56;100929.59;;;11.85;100.00
64354;BME280;50681;53.334;-6.536;2023-04-09T06:00:22;100910.28;;;11.73;100.00
64354;BME280;50681;53.334;-6.536;2023-04-09T06:02:47;100893.94;;;11.59;100.00
64354;BME280;50681;53.334;-6.536;2023-04-09T06:05:13;100938.81;;;11.84;100.00
64354;BME280;50681;53.334;-6.536;2023-04-09T06:07:38;100934.44;;;11.88;100.00
64354;BME280;50681;53.334;-6.536;2023-04-09T06:10:04;100938.09;;;12.03;100.00
64354;BME280;50681;53.334;-6.536;2023-04-09T06:12:30;100917.88;;;11.71;100.00
64354;BME280;50681;53.334;-6.536;2023-04-09T06:14:55;100917.22;;;11.79;100.00
64354;BME280;50681;53.334;-6.536;2023-04-09T06:17:20;100931.78;;;11.83;100.00
64354;BME280;50681;53.334;-6.536;2023-04-09T06:19:46;100945.41;;;12.02;100.00
64354;BME280;50681;53.334;-6.536;2023-04-09T06:22:11;100946.84;;;12.19;100.00
64354;BME280;50681;53.334;-6.536;2023-04-09T06:24:37;100928.75;;;12.14;100.00
64354;BME280;50681;53.334;-6.536;2023-04-09T06:27:02;100935.13;;;12.24;100.00
64354;BME280;50681;53.334;-6.536;2023-04-09T06:29:27;100921.91;;;12.22;100.00
64354;BME280;50681;53.334;-6.536;2023-04-09T06:31:53;100910.31;;;12.16;100.00
64354;BME280;50681;53.334;-6.536;2023-04-09T06:34:19;100903.09;;;12.31;100.00
64354;BME280;50681;53.334;-6.536;2023-04-09T06:36:45;100919.25;;;12.36;100.00
64354;BME280;50681;53.334;-6.536;2023-04-09T06:39:10;100918.41;;;12.41;100.00
64354;BME280;50681;53.334;-6.536;2023-04-09T06:41:36;100917.97;;;12.33;100.00
64354;BME280;50681;53.334;-6.536;2023-04-09T06:44:01;100901.47;;;12.30;100.00
64354;BME280;50681;53.334;-6.536;2023-04-09T06:46:27;100903.91;;;12.31;100.00
64354;BME280;50681;53.334;-6.536;2023-04-09T06:48:53;100904.41;;;12.53;100.00
64354;BME280;50681;53.334;-6.536;2023-04-09T06:51:18;100878.66;;;12.36;100.00
64354;BME280;50681;53.334;-6.536;2023-04-09T06:53:43;100917.09;;;12.57;100.00
64354;BME280;50681;53.334;-6.536;2023-04-09T06:56:09;100892.97;;;12.56;100.00
64354;BME280;50681;53.334;-6.536;2023-04-09T06:58:35;100873.50;;;12.54;100.00
64354;BME280;50681;53.334;-6.536;2023-04-09T07:01:03;100890.44;;;12.64;100.00
64354;BME280;50681;53.334;-6.536;2023-04-09T07:03:29;100870.44;;;12.60;100.00
64354;BME280;50681;53.334;-6.536;2023-04-09T07:05:54;100869.97;;;12.72;100.00
64354;BME280;50681;53.334;-6.536;2023-04-09T07:08:20;100877.31;;;12.72;100.00
64354;BME280;50681;53.334;-6.536;2023-04-09T07:10:47;100869.22;;;12.86;100.00
64354;BME280;50681;53.334;-6.536;2023-04-09T07:13:13;100854.22;;;12.74;100.00
64354;BME280;50681;53.334;-6.536;2023-04-09T07:15:38;100836.78;;;12.81;100.00
64354;BME280;50681;53.334;-6.536;2023-04-09T07:18:04;100846.94;;;12.89;100.00
64354;BME280;50681;53.334;-6.536;2023-04-09T07:20:30;100862.88;;;13.23;100.00
64354;BME280;50681;53.334;-6.536;2023-04-09T07:22:55;100834.72;;;13.05;100.00
64354;BME280;50681;53.334;-6.536;2023-04-09T07:25:21;100824.63;;;13.11;100.00
64354;BME280;50681;53.334;-6.536;2023-04-09T07:27:48;100811.06;;;13.11;100.00
64354;BME280;50681;53.334;-6.536;2023-04-09T07:30:14;100789.06;;;13.13;100.00
64354;BME280;50681;53.334;-6.536;2023-04-09T07:32:40;100823.81;;;13.38;100.00
64354;BME280;50681;53.334;-6.536;2023-04-09T07:35:06;100830.28;;;13.43;100.00
64354;BME280;50681;53.334;-6.536;2023-04-09T07:37:35;100825.75;;;13.52;100.00
64354;BME280;50681;53.334;-6.536;2023-04-09T07:40:01;100813.59;;;13.63;100.00
64354;BME280;50681;53.334;-6.536;2023-04-09T07:42:28;100825.53;;;13.62;100.00
64354;BME280;50681;53.334;-6.536;2023-04-09T07:44:54;100808.25;;;13.58;100.00
64354;BME280;50681;53.334;-6.536;2023-04-09T07:47:21;100826.50;;;13.80;100.00
64354;BME280;50681;53.334;-6.536;2023-04-09T07:49:47;100827.28;;;14.09;100.00
64354;BME280;50681;53.334;-6.536;2023-04-09T07:52:12;100826.03;;;14.15;100.00
64354;BME280;50681;53.334;-6.536;2023-04-09T07:54:37;100813.97;;;14.21;100.00
64354;BME280;50681;53.334;-6.536;2023-04-09T07:57:03;100795.19;;;14.11;100.00
64354;BME280;50681;53.334;-6.536;2023-04-09T07:59:33;100813.97;;;14.44;100.00
64354;BME280;50681;53.334;-6.536;2023-04-09T08:01:58;100806.00;;;14.48;100.00
64354;BME280;50681;53.334;-6.536;2023-04-09T08:04:24;100809.41;;;14.53;100.00
64354;BME280;50681;53.334;-6.536;2023-04-09T08:06:51;100822.81;;;14.73;100.00
64354;BME280;50681;53.334;-6.536;2023-04-09T08:09:17;100806.56;;;14.59;100.00
64354;BME280;50681;53.334;-6.536;2023-04-09T08:11:43;100795.06;;;14.62;100.00
64354;BME280;50681;53.334;-6.536;2023-04-09T08:14:10;100781.84;;;14.69;100.00
64354;BME280;50681;53.334;-6.536;2023-04-09T08:16:41;100792.88;;;14.95;100.00
64354;BME280;50681;53.334;-6.536;2023-04-09T08:19:08;100795.72;;;14.90;100.00
64354;BME280;50681;53.334;-6.536;2023-04-09T08:21:39;100781.75;;;14.74;100.00
64354;BME280;50681;53.334;-6.536;2023-04-09T08:24:08;100810.03;;;15.05;100.00
64354;BME280;50681;53.334;-6.536;2023-04-09T08:26:35;100791.81;;;15.05;100.00
64354;BME280;50681;53.334;-6.536;2023-04-09T08:29:02;100807.56;;;15.26;100.00
64354;BME280;50681;53.334;-6.536;2023-04-09T08:31:28;100808.97;;;15.23;100.00
64354;BME280;50681;53.334;-6.536;2023-04-09T08:33:53;100781.72;;;15.06;100.00
64354;BME280;50681;53.334;-6.536;2023-04-09T08:36:19;100800.03;;;15.23;100.00
64354;BME280;50681;53.334;-6.536;2023-04-09T08:38:45;100813.84;;;15.44;100.00
64354;BME280;50681;53.334;-6.536;2023-04-09T08:41:23;100794.00;;;15.43;100.00
64354;BME280;50681;53.334;-6.536;2023-04-09T08:43:50;100819.34;;;15.53;100.00
64354;BME280;50681;53.334;-6.536;2023-04-09T08:46:20;100811.84;;;15.67;100.00
64354;BME280;50681;53.334;-6.536;2023-04-09T08:48:47;100797.75;;;15.74;100.00
64354;BME280;50681;53.334;-6.536;2023-04-09T08:51:13;100801.25;;;15.57;100.00
64354;BME280;50681;53.334;-6.536;2023-04-09T08:53:45;100810.25;;;15.84;100.00
64354;BME280;50681;53.334;-6.536;2023-04-09T08:56:15;100796.84;;;15.87;100.00
64354;BME280;50681;53.334;-6.536;2023-04-09T08:58:45;100795.06;;;16.00;100.00
64354;BME280;50681;53.334;-6.536;2023-04-09T09:01:25;100805.63;;;16.11;100.00
64354;BME280;50681;53.334;-6.536;2023-04-09T09:04:02;100772.78;;;16.16;100.00
64354;BME280;50681;53.334;-6.536;2023-04-09T09:06:32;100777.75;;;16.31;100.00
64354;BME280;50681;53.334;-6.536;2023-04-09T09:09:07;100772.13;;;16.37;100.00
64354;BME280;50681;53.334;-6.536;2023-04-09T09:11:44;100769.72;;;16.53;100.00
64354;BME280;50681;53.334;-6.536;2023-04-09T09:14:10;100786.97;;;16.66;100.00
64354;BME280;50681;53.334;-6.536;2023-04-09T09:16:38;100790.59;;;16.87;100.00
64354;BME280;50681;53.334;-6.536;2023-04-09T09:19:07;100785.19;;;16.79;100.00
64354;BME280;50681;53.334;-6.536;2023-04-09T09:21:33;100790.78;;;16.91;100.00
64354;BME280;50681;53.334;-6.536;2023-04-09T09:24:01;100769.75;;;16.92;100.00
64354;BME280;50681;53.334;-6.536;2023-04-09T09:26:28;100776.00;;;17.01;100.00
64354;BME280;50681;53.334;-6.536;2023-04-09T09:28:55;100771.91;;;16.59;100.00
64354;BME280;50681;53.334;-6.536;2023-04-09T09:31:23;100774.91;;;16.84;100.00
64354;BME280;50681;53.334;-6.536;2023-04-09T09:33:50;100782.59;;;16.82;100.00
64354;BME280;50681;53.334;-6.536;2023-04-09T09:36:32;100786.75;;;16.88;100.00
64354;BME280;50681;53.334;-6.536;2023-04-09T09:38:59;100785.06;;;16.66;100.00
64354;BME280;50681;53.334;-6.536;2023-04-09T09:41:28;100785.78;;;17.02;100.00
64354;BME280;50681;53.334;-6.536;2023-04-09T09:43:56;100766.50;;;17.07;100.00
64354;BME280;50681;53.334;-6.536;2023-04-09T09:46:24;100751.06;;;17.11;100.00
64354;BME280;50681;53.334;-6.536;2023-04-09T09:48:50;100761.88;;;17.29;100.00
64354;BME280;50681;53.334;-6.536;2023-04-09T09:51:15;100759.81;;;17.26;100.00
64354;BME280;50681;53.334;-6.536;2023-04-09T09:53:45;100734.84;;;17.45;100.00
64354;BME280;50681;53.334;-6.536;2023-04-09T09:56:18;100740.59;;;17.22;100.00
64354;BME280;50681;53.334;-6.536;2023-04-09T09:58:55;100738.63;;;17.31;100.00
64354;BME280;50681;53.334;-6.536;2023-04-09T10:01:28;100739.50;;;17.14;100.00
64354;BME280;50681;53.334;-6.536;2023-04-09T10:03:55;100750.56;;;17.18;100.00
64354;BME280;50681;53.334;-6.536;2023-04-09T10:06:22;100724.97;;;17.01;100.00
64354;BME280;50681;53.334;-6.536;2023-04-09T10:08:48;100716.19;;;16.87;100.00
64354;BME280;50681;53.334;-6.536;2023-04-09T10:11:18;100716.38;;;16.82;100.00
64354;BME280;50681;53.334;-6.536;2023-04-09T10:13:49;100725.53;;;17.16;100.00
64354;BME280;50681;53.334;-6.536;2023-04-09T10:16:16;100712.88;;;17.11;100.00
64354;BME280;50681;53.334;-6.536;2023-04-09T10:18:41;100710.88;;;16.90;100.00
64354;BME280;50681;53.334;-6.536;2023-04-09T10:23:44;100705.50;;;16.73;100.00
64354;BME280;50681;53.334;-6.536;2023-04-09T10:26:13;100706.16;;;16.70;100.00
64354;BME280;50681;53.334;-6.536;2023-04-09T10:28:39;100692.16;;;16.41;100.00
64354;BME280;50681;53.334;-6.536;2023-04-09T10:31:06;100682.03;;;16.42;100.00
64354;BME280;50681;53.334;-6.536;2023-04-09T10:33:35;100687.53;;;16.24;100.00
64354;BME280;50681;53.334;-6.536;2023-04-09T10:36:11;100682.91;;;16.16;100.00
64354;BME280;50681;53.334;-6.536;2023-04-09T10:38:39;100692.97;;;16.24;100.00
64354;BME280;50681;53.334;-6.536;2023-04-09T10:43:37;100667.50;;;16.29;100.00
64354;BME280;50681;53.334;-6.536;2023-04-09T10:46:23;100675.78;;;16.41;100.00
64354;BME280;50681;53.334;-6.536;2023-04-09T10:49:08;100672.66;;;16.60;100.00
64354;BME280;50681;53.334;-6.536;2023-04-09T10:51:35;100667.59;;;16.80;100.00
64354;BME280;50681;53.334;-6.536;2023-04-09T10:54:14;100645.28;;;16.57;100.00
64354;BME280;50681;53.334;-6.536;2023-04-09T10:59:32;100634.28;;;16.36;100.00
64354;BME280;50681;53.334;-6.536;2023-04-09T11:01:58;100641.31;;;16.45;100.00
64354;BME280;50681;53.334;-6.536;2023-04-09T11:04:32;100645.31;;;16.78;100.00
64354;BME280;50681;53.334;-6.536;2023-04-09T11:07:04;100643.25;;;16.75;100.00
64354;BME280;50681;53.334;-6.536;2023-04-09T11:09:34;100652.66;;;16.86;100.00
64354;BME280;50681;53.334;-6.536;2023-04-09T11:11:59;100663.38;;;17.00;100.00
64354;BME280;50681;53.334;-6.536;2023-04-09T11:14:28;100654.41;;;16.91;100.00
64354;BME280;50681;53.334;-6.536;2023-04-09T11:16:53;100650.00;;;16.69;100.00
64354;BME280;50681;53.334;-6.536;2023-04-09T11:19:20;100650.88;;;16.90;100.00
64354;BME280;50681;53.334;-6.536;2023-04-09T11:21:46;100662.25;;;17.01;100.00
64354;BME280;50681;53.334;-6.536;2023-04-09T11:24:17;100657.66;;;17.14;100.00
64354;BME280;50681;53.334;-6.536;2023-04-09T11:26:47;100650.22;;;17.24;100.00
64354;BME280;50681;53.334;-6.536;2023-04-09T11:29:13;100656.31;;;17.21;100.00
64354;BME280;50681;53.334;-6.536;2023-04-09T11:31:43;100637.44;;;17.15;100.00
64354;BME280;50681;53.334;-6.536;2023-04-09T11:34:10;100630.38;;;17.36;100.00
64354;BME280;50681;53.334;-6.536;2023-04-09T11:36:48;100652.72;;;17.08;100.00
64354;BME280;50681;53.334;-6.536;2023-04-09T11:39:13;100651.69;;;17.21;100.00
64354;BME280;50681;53.334;-6.536;2023-04-09T11:41:42;100618.78;;;17.17;100.00
64354;BME280;50681;53.334;-6.536;2023-04-09T11:44:07;100621.72;;;17.12;100.00
64354;BME280;50681;53.334;-6.536;2023-04-09T11:46:34;100633.50;;;17.46;100.00
64354;BME280;50681;53.334;-6.536;2023-04-09T11:48:59;100636.84;;;17.31;100.00
64354;BME280;50681;53.334;-6.536;2023-04-09T11:51:26;100603.84;;;16.94;100.00
64354;BME280;50681;53.334;-6.536;2023-04-09T11:53:53;100637.31;;;17.12;100.00
64354;BME280;50681;53.334;-6.536;2023-04-09T11:56:18;100612.22;;;16.97;100.00
64354;BME280;50681;53.334;-6.536;2023-04-09T11:58:47;100614.94;;;17.18;100.00
64354;BME280;50681;53.334;-6.536;2023-04-09T12:01:14;100623.50;;;17.51;100.00
64354;BME280;50681;53.334;-6.536;2023-04-09T12:03:53;100597.56;;;17.44;100.00
64354;BME280;50681;53.334;-6.536;2023-04-09T12:06:20;100611.72;;;17.59;100.00
64354;BME280;50681;53.334;-6.536;2023-04-09T12:08:54;100601.75;;;17.42;100.00
64354;BME280;50681;53.334;-6.536;2023-04-09T12:11:29;100617.84;;;17.56;100.00
64354;BME280;50681;53.334;-6.536;2023-04-09T12:14:06;100610.78;;;17.55;100.00
64354;BME280;50681;53.334;-6.536;2023-04-09T12:16:33;100592.09;;;17.44;100.00
64354;BME280;50681;53.334;-6.536;2023-04-09T12:19:07;100604.41;;;17.51;100.00
64354;BME280;50681;53.334;-6.536;2023-04-09T12:21:45;100624.13;;;17.56;100.00
64354;BME280;50681;53.334;-6.536;2023-04-09T12:24:15;100598.81;;;17.47;100.00
64354;BME280;50681;53.334;-6.536;2023-04-09T12:26:45;100592.84;;;17.32;100.00
64354;BME280;50681;53.334;-6.536;2023-04-09T12:29:14;100602.56;;;17.21;100.00
64354;BME280;50681;53.334;-6.536;2023-04-09T12:31:40;100575.06;;;17.05;100.00
64354;BME280;50681;53.334;-6.536;2023-04-09T12:34:06;100587.94;;;16.96;100.00
64354;BME280;50681;53.334;-6.536;2023-04-09T12:36:31;100560.66;;;17.04;100.00
64354;BME280;50681;53.334;-6.536;2023-04-09T12:38:57;100569.28;;;17.28;100.00
64354;BME280;50681;53.334;-6.536;2023-04-09T12:41:22;100591.78;;;17.46;100.00
64354;BME280;50681;53.334;-6.536;2023-04-09T12:43:48;100575.88;;;17.27;100.00
64354;BME280;50681;53.334;-6.536;2023-04-09T12:46:14;100576.19;;;17.46;100.00